createdAt,value
2022-08-04T00:02:32.061Z,24.49
2022-08-04T00:05:05.415Z,24.39
2022-08-04T00:07:44.758Z,24.29
2022-08-04T00:10:19.875Z,24.18
2022-08-04T00:12:53.420Z,24.12
2022-08-04T00:15:25.163Z,24.01
2022-08-04T00:18:02.730Z,23.94
2022-08-04T00:20:31.975Z,23.89
2022-08-04T00:23:01.563Z,23.85
2022-08-04T00:25:30.382Z,23.84
2022-08-04T00:28:02.310Z,23.82
2022-08-04T00:30:31.712Z,23.81
2022-08-04T00:33:01.419Z,23.76
2022-08-04T00:35:34.040Z,23.75
2022-08-04T00:38:02.601Z,23.71
2022-08-04T00:40:50.180Z,23.69
2022-08-04T00:43:32.798Z,23.65
2022-08-04T00:46:33.458Z,23.69
2022-08-04T00:49:24.770Z,23.70
2022-08-04T00:52:32.536Z,23.72
2022-08-04T00:55:14.032Z,23.68
2022-08-04T00:58:00.884Z,23.67
2022-08-04T01:00:34.067Z,23.62
2022-08-04T01:03:35.353Z,23.58
2022-08-04T01:06:13.258Z,23.53
2022-08-04T01:08:56.233Z,23.49
2022-08-04T01:11:57.138Z,23.46
2022-08-04T01:14:44.799Z,23.43
2022-08-04T01:17:29.918Z,23.40
2022-08-04T01:20:07.299Z,23.39
2022-08-04T01:23:15.942Z,23.39
2022-08-04T01:26:43.994Z,23.37
2022-08-04T01:29:10.960Z,23.23
2022-08-04T01:31:56.747Z,23.32
2022-08-04T01:34:28.307Z,23.26
2022-08-04T01:37:01.662Z,23.20
2022-08-04T01:39:42.581Z,23.16
2022-08-04T01:42:31.427Z,23.13
2022-08-04T01:45:03.530Z,23.08
2022-08-04T01:47:44.467Z,23.10
2022-08-04T01:50:14.493Z,23.08
2022-08-04T01:52:54.792Z,23.05
2022-08-04T01:55:23.706Z,23.05
2022-08-04T01:58:21.600Z,23.03
2022-08-04T02:00:58.342Z,23.02
2022-08-04T02:04:18.686Z,22.97
2022-08-04T02:06:44.368Z,22.96
2022-08-04T02:09:23.591Z,22.95
2022-08-04T02:12:05.555Z,22.93
2022-08-04T02:14:52.005Z,22.94
2022-08-04T02:17:29.924Z,22.95
2022-08-04T02:20:12.210Z,22.92
2022-08-04T02:23:02.631Z,22.88
2022-08-04T02:25:38.214Z,22.82
2022-08-04T02:28:31.498Z,22.78
2022-08-04T02:31:23.234Z,22.72
2022-08-04T02:34:09.627Z,22.67
2022-08-04T02:36:44.116Z,22.64
2022-08-04T02:39:13.751Z,22.60
2022-08-04T02:41:42.960Z,22.59
2022-08-04T02:44:11.627Z,22.60
2022-08-04T02:46:40.896Z,22.62
2022-08-04T02:49:12.434Z,22.62
2022-08-04T02:51:51.219Z,22.63
2022-08-04T02:54:31.815Z,22.64
2022-08-04T02:57:04.377Z,22.64
2022-08-04T03:00:01.660Z,22.64
2022-08-04T03:02:55.563Z,22.64
2022-08-04T03:05:29.129Z,22.64
2022-08-04T03:08:33.636Z,22.59
2022-08-04T03:11:42.628Z,22.47
2022-08-04T03:14:40.404Z,22.35
2022-08-04T03:17:59.916Z,22.26
2022-08-04T03:21:16.394Z,22.16
2022-08-04T03:24:37.560Z,22.12
2022-08-04T03:27:49.727Z,22.13
2022-08-04T03:30:39.740Z,22.20
2022-08-04T03:33:46.090Z,22.06
2022-08-04T03:36:55.135Z,22.22
2022-08-04T03:43:04.588Z,22.19
2022-08-04T03:46:12.889Z,22.21
2022-08-04T03:49:08.988Z,22.23
2022-08-04T03:52:05.962Z,22.24
2022-08-04T03:55:06.736Z,22.24
2022-08-04T04:00:52.956Z,22.25
2022-08-04T04:03:42.139Z,22.28
2022-08-04T04:07:10.059Z,22.30
2022-08-04T04:10:28.928Z,22.30
2022-08-04T04:13:25.360Z,22.27
2022-08-04T04:16:42.889Z,22.49
2022-08-04T04:19:44.903Z,22.61
2022-08-04T04:22:26.663Z,22.52
2022-08-04T04:25:07.704Z,22.64
2022-08-04T04:27:44.509Z,22.59
2022-08-04T04:30:21.152Z,22.61
2022-08-04T04:33:09.052Z,22.63
2022-08-04T04:35:42.887Z,22.75
2022-08-04T04:38:31.786Z,22.79
2022-08-04T04:41:23.472Z,22.88
2022-08-04T04:44:32.803Z,22.95
2022-08-04T04:48:07.332Z,22.93
2022-08-04T04:50:16.839Z,22.81
2022-08-04T04:52:50.330Z,22.75
2022-08-04T04:55:22.986Z,22.70
2022-08-04T04:58:02.136Z,22.61
2022-08-04T05:00:48.672Z,22.67
2022-08-04T05:03:46.258Z,22.61
2022-08-04T05:06:36.072Z,23.00
2022-08-04T05:09:19.412Z,23.16
2022-08-04T05:14:22.822Z,23.25
2022-08-04T05:15:19.795Z,23.25
2022-08-04T05:18:10.388Z,23.59
2022-08-04T05:20:44.113Z,24.40
2022-08-04T05:23:29.143Z,24.53
2022-08-04T05:25:59.580Z,24.36
2022-08-04T05:28:56.124Z,24.34
2022-08-04T05:31:35.963Z,25.45
2022-08-04T05:34:12.112Z,26.40
2022-08-04T05:36:49.073Z,27.13
2022-08-04T05:39:22.330Z,27.94
2022-08-04T05:41:55.517Z,28.50
2022-08-04T05:44:30.544Z,29.05
2022-08-04T05:46:59.845Z,29.29
2022-08-04T05:49:31.280Z,29.37
2022-08-04T05:52:08.336Z,29.38
2022-08-04T05:54:43.986Z,29.68
2022-08-04T05:57:13.724Z,29.76
2022-08-04T05:59:53.562Z,29.72
2022-08-04T06:02:22.359Z,29.80
2022-08-04T06:04:54.058Z,29.92
2022-08-04T06:07:22.852Z,29.89
2022-08-04T06:09:51.060Z,30.04
2022-08-04T06:12:22.075Z,30.23
2022-08-04T06:14:59.546Z,30.51
2022-08-04T06:19:56.400Z,30.80
2022-08-04T06:20:27.554Z,30.48
2022-08-04T06:23:19.490Z,30.22
2022-08-04T06:25:58.244Z,29.88
2022-08-04T06:28:27.936Z,30.06
2022-08-04T06:32:29.912Z,30.41
2022-08-04T06:33:54.110Z,30.42
2022-08-04T06:36:30.111Z,29.98
2022-08-04T06:39:00.498Z,29.69
2022-08-04T06:41:38.392Z,28.97
2022-08-04T06:44:29.439Z,28.50
2022-08-04T06:46:59.965Z,28.38
2022-08-04T06:49:55.156Z,28.32
2022-08-04T06:52:36.728Z,28.23
2022-08-04T06:55:05.772Z,28.19
2022-08-04T06:57:35.913Z,28.07
2022-08-04T07:00:08.707Z,28.01
2022-08-04T07:02:42.142Z,28.05
2022-08-04T07:05:20.093Z,28.04
2022-08-04T07:07:56.881Z,28.10
2022-08-04T07:10:26.394Z,28.07
2022-08-04T07:12:57.024Z,28.08
2022-08-04T07:15:25.817Z,28.05
2022-08-04T07:18:00.086Z,28.12
2022-08-04T07:20:33.016Z,28.25
2022-08-04T07:23:05.506Z,28.35
2022-08-04T07:26:11.818Z,28.41
2022-08-04T07:28:43.060Z,28.50
2022-08-04T07:31:33.407Z,28.54
2022-08-04T07:34:31.767Z,28.61
2022-08-04T07:37:09.238Z,28.73
2022-08-04T07:39:48.386Z,28.87
2022-08-04T07:42:21.411Z,28.96
2022-08-04T07:44:49.777Z,29.12
2022-08-04T07:47:31.600Z,29.24
2022-08-04T07:50:10.736Z,29.40
2022-08-04T07:53:22.340Z,29.39
2022-08-04T07:55:43.790Z,29.31
2022-08-04T07:58:11.714Z,29.24
2022-08-04T08:00:40.394Z,29.39
2022-08-04T08:03:09.318Z,29.47
2022-08-04T08:06:17.580Z,29.52
2022-08-04T08:08:42.097Z,29.47
2022-08-04T08:11:10.388Z,29.52
2022-08-04T08:14:03.652Z,29.65
2022-08-04T08:16:35.915Z,29.73
2022-08-04T08:19:05.102Z,29.79
2022-08-04T08:21:36.320Z,29.91
2022-08-04T08:24:30.950Z,29.94
2022-08-04T08:26:59.986Z,29.99
2022-08-04T08:29:29.506Z,30.03
2022-08-04T08:32:02.691Z,30.13
2022-08-04T08:34:34.137Z,30.08
2022-08-04T08:37:18.464Z,30.24
2022-08-04T08:40:00.732Z,30.34
2022-08-04T08:42:56.927Z,30.36
2022-08-04T08:45:58.611Z,30.44
2022-08-04T08:49:09.256Z,30.47
2022-08-04T08:52:05.535Z,30.61
2022-08-04T08:55:02.500Z,30.69
2022-08-04T08:58:04.670Z,30.83
2022-08-04T09:00:51.370Z,30.88
2022-08-04T09:03:48.462Z,31.02
2022-08-04T09:06:49.875Z,31.31
2022-08-04T09:09:58.229Z,31.58
2022-08-04T09:12:36.993Z,31.73
2022-08-04T09:15:13.299Z,31.81
2022-08-04T09:17:57.173Z,31.87
2022-08-04T09:20:32.171Z,31.98
2022-08-04T09:23:17.525Z,32.15
2022-08-04T09:25:52.252Z,32.26
2022-08-04T09:28:51.666Z,32.34
2022-08-04T09:31:25.701Z,32.37
2022-08-04T09:34:02.699Z,32.31
2022-08-04T09:36:47.634Z,32.46
2022-08-04T09:39:27.661Z,32.49
2022-08-04T09:42:20.032Z,32.40
2022-08-04T09:45:06.400Z,32.32
2022-08-04T09:47:47.751Z,32.41
2022-08-04T09:50:50.537Z,32.60
2022-08-04T09:53:47.495Z,32.71
2022-08-04T09:56:23.492Z,32.82
2022-08-04T09:59:06.844Z,32.86
2022-08-04T10:01:39.802Z,32.87
2022-08-04T10:04:13.314Z,32.93
2022-08-04T10:07:10.428Z,33.09
2022-08-04T10:09:59.669Z,33.21
2022-08-04T10:12:36.805Z,33.33
2022-08-04T10:15:35.254Z,33.46
2022-08-04T10:18:29.943Z,33.50
2022-08-04T10:21:27.824Z,33.49
2022-08-04T10:24:29.901Z,33.72
2022-08-04T10:27:10.752Z,33.87
2022-08-04T10:29:45.181Z,33.90
2022-08-04T10:32:19.690Z,34.04
2022-08-04T10:35:09.591Z,34.21
2022-08-04T10:37:59.234Z,34.31
2022-08-04T10:40:47.858Z,34.29
2022-08-04T10:43:34.301Z,34.39
2022-08-04T10:46:44.458Z,34.30
2022-08-04T10:49:30.987Z,34.47
2022-08-04T10:52:09.719Z,34.62
2022-08-04T10:54:47.618Z,34.68
2022-08-04T10:57:22.495Z,34.69
2022-08-04T11:00:00.755Z,34.74
2022-08-04T11:02:48.088Z,34.77
2022-08-04T11:05:28.301Z,35.12
2022-08-04T11:08:21.525Z,35.52
2022-08-04T11:10:56.658Z,35.58
2022-08-04T11:13:36.260Z,35.43
2022-08-04T11:16:07.913Z,35.37
2022-08-04T11:18:49.255Z,35.39
2022-08-04T11:21:21.594Z,35.34
2022-08-04T11:24:06.274Z,35.51
2022-08-04T11:26:46.109Z,35.59
2022-08-04T11:29:42.325Z,35.47
2022-08-04T11:32:31.092Z,35.41
2022-08-04T11:35:03.143Z,35.33
2022-08-04T11:37:46.599Z,35.38
2022-08-04T11:40:24.856Z,35.31
2022-08-04T11:44:01.416Z,35.26
2022-08-04T11:46:19.704Z,35.24
2022-08-04T11:48:57.398Z,35.41
2022-08-04T11:51:32.916Z,35.59
2022-08-04T11:54:05.030Z,35.62
2022-08-04T11:56:36.521Z,35.59
2022-08-04T11:59:08.619Z,35.53
2022-08-04T12:02:21.013Z,35.51
2022-08-04T12:08:01.692Z,35.49
2022-08-04T12:10:42.898Z,35.63
2022-08-04T12:13:36.812Z,35.69
2022-08-04T12:16:30.255Z,35.75
2022-08-04T12:19:01.021Z,35.77
2022-08-04T12:21:43.570Z,35.53
2022-08-04T12:24:22.843Z,35.41
2022-08-04T12:26:57.227Z,35.51
2022-08-04T12:29:29.964Z,35.61
2022-08-04T12:32:04.024Z,35.59
2022-08-04T12:34:36.030Z,35.52
2022-08-04T12:37:08.742Z,35.67
2022-08-04T12:40:30.177Z,35.61
2022-08-04T12:42:55.871Z,35.53
2022-08-04T12:45:30.605Z,35.52
2022-08-04T12:48:00.803Z,35.54
2022-08-04T12:50:36.541Z,35.72
2022-08-04T12:53:13.235Z,35.99
2022-08-04T12:56:01.437Z,36.26
2022-08-04T12:58:42.735Z,36.42
2022-08-04T13:02:08.181Z,36.40
2022-08-04T13:04:17.772Z,36.50
2022-08-04T13:06:55.382Z,36.66
2022-08-04T13:12:32.759Z,36.29
2022-08-04T13:15:18.600Z,35.83
2022-08-04T13:17:52.892Z,35.91
2022-08-04T13:20:30.915Z,36.04
2022-08-04T13:23:10.969Z,36.02
2022-08-04T13:26:42.295Z,35.78
2022-08-04T13:28:45.040Z,35.62
2022-08-04T13:31:18.496Z,35.66
2022-08-04T13:33:55.922Z,35.57
2022-08-04T13:36:27.255Z,35.52
2022-08-04T13:38:59.468Z,35.78
2022-08-04T13:41:31.265Z,35.85
2022-08-04T13:44:17.310Z,35.90
2022-08-04T13:46:51.519Z,36.00
2022-08-04T13:49:42.736Z,36.23
2022-08-04T13:52:11.490Z,36.52
2022-08-04T13:54:43.426Z,36.41
2022-08-04T13:57:15.508Z,36.25
2022-08-04T13:59:47.144Z,36.23
2022-08-04T14:02:31.614Z,36.21
2022-08-04T14:05:18.149Z,35.97
2022-08-04T14:07:48.994Z,35.83
2022-08-04T14:10:17.213Z,35.81
2022-08-04T14:12:49.426Z,35.81
2022-08-04T14:16:02.908Z,35.72
2022-08-04T14:18:28.057Z,35.84
2022-08-04T14:21:07.415Z,35.98
2022-08-04T14:23:50.753Z,36.17
2022-08-04T14:26:33.357Z,36.31
2022-08-04T14:29:27.230Z,36.46
2022-08-04T14:32:29.170Z,36.61
2022-08-04T14:35:12.514Z,36.52
2022-08-04T14:38:03.376Z,36.29
2022-08-04T14:40:35.141Z,36.12
2022-08-04T14:43:08.942Z,35.90
2022-08-04T14:45:54.905Z,35.72
2022-08-04T14:48:25.344Z,35.67
2022-08-04T14:50:59.440Z,35.60
2022-08-04T14:53:30.204Z,35.75
2022-08-04T14:55:59.709Z,35.69
2022-08-04T14:58:35.570Z,35.75
2022-08-04T15:01:23.487Z,35.69
2022-08-04T15:03:53.044Z,35.46
2022-08-04T15:06:33.076Z,35.62
2022-08-04T15:09:06.973Z,35.61
2022-08-04T15:11:43.501Z,35.51
2022-08-04T15:14:38.383Z,35.37
2022-08-04T15:17:31.917Z,35.38
2022-08-04T15:20:40.316Z,35.27
2022-08-04T15:23:11.359Z,35.13
2022-08-04T15:25:45.238Z,34.99
2022-08-04T15:28:26.377Z,34.87
2022-08-04T15:30:55.739Z,34.77
2022-08-04T15:33:42.256Z,34.74
2022-08-04T15:36:38.485Z,34.73
2022-08-04T15:39:32.778Z,34.51
2022-08-04T15:42:21.595Z,34.04
2022-08-04T15:45:21.305Z,33.37
2022-08-04T15:48:33.032Z,32.58
2022-08-04T15:51:08.284Z,32.30
2022-08-04T15:54:27.935Z,32.09
2022-08-04T15:57:39.072Z,31.65
2022-08-04T16:00:14.431Z,31.27
2022-08-04T16:02:44.390Z,31.07
2022-08-04T16:05:39.302Z,30.90
2022-08-04T16:08:26.169Z,30.80
2022-08-04T16:10:55.123Z,30.68
2022-08-04T16:13:25.159Z,30.61
2022-08-04T16:16:03.130Z,30.59
2022-08-04T16:19:08.748Z,30.54
2022-08-04T16:21:56.227Z,30.48
2022-08-04T16:24:30.479Z,30.29
2022-08-04T16:27:02.165Z,29.96
2022-08-04T16:29:42.158Z,29.85
2022-08-04T16:32:11.915Z,29.79
2022-08-04T16:34:55.449Z,29.48
2022-08-04T16:37:43.877Z,29.28
2022-08-04T16:40:52.384Z,29.03
2022-08-04T16:43:23.031Z,28.83
2022-08-04T16:45:59.911Z,28.71
2022-08-04T16:48:30.903Z,28.71
2022-08-04T16:51:07.474Z,28.72
2022-08-04T16:54:03.080Z,28.47
2022-08-04T16:56:35.813Z,28.46
2022-08-04T16:59:10.869Z,28.44
2022-08-04T17:01:48.784Z,28.45
2022-08-04T17:04:17.576Z,28.36
2022-08-04T17:06:47.314Z,28.39
2022-08-04T17:09:22.391Z,28.39
2022-08-04T17:12:07.377Z,28.31
2022-08-04T17:14:35.288Z,28.28
2022-08-04T17:18:03.859Z,28.29
2022-08-04T17:21:01.759Z,28.34
2022-08-04T17:24:12.730Z,28.50
2022-08-04T17:26:40.351Z,28.46
2022-08-04T17:29:21.521Z,28.49
2022-08-04T17:31:55.359Z,28.45
2022-08-04T17:34:35.763Z,28.43
2022-08-04T17:37:36.689Z,28.28
2022-08-04T17:40:10.163Z,28.19
2022-08-04T17:42:41.617Z,28.09
2022-08-04T17:45:41.453Z,27.98
2022-08-04T17:47:59.471Z,28.02
2022-08-04T17:50:44.004Z,28.02
2022-08-04T17:53:13.546Z,27.97
2022-08-04T17:55:49.765Z,27.89
2022-08-04T17:58:21.433Z,27.91
2022-08-04T18:03:51.593Z,27.83
2022-08-04T18:06:41.286Z,27.84
2022-08-04T18:10:01.665Z,27.76
2022-08-04T18:12:30.047Z,27.61
2022-08-04T18:15:02.676Z,27.60
2022-08-04T18:18:20.751Z,27.49
2022-08-04T18:20:27.774Z,27.51
2022-08-04T18:22:55.795Z,27.50
2022-08-04T18:25:50.602Z,27.53
2022-08-04T18:28:17.348Z,27.42
2022-08-04T18:30:55.598Z,27.32
2022-08-04T18:33:39.992Z,27.30
2022-08-04T18:36:33.132Z,27.27
2022-08-04T18:39:13.320Z,27.28
2022-08-04T18:42:01.648Z,27.31
2022-08-04T18:44:57.441Z,27.28
2022-08-04T18:47:31.780Z,27.21
2022-08-04T18:53:36.898Z,27.09
2022-08-04T18:56:19.985Z,26.99
2022-08-04T18:59:02.902Z,26.94
2022-08-04T19:04:37.174Z,26.83
2022-08-04T19:08:02.584Z,26.82
2022-08-04T19:10:06.815Z,26.71
2022-08-04T19:12:54.678Z,26.67
2022-08-04T19:15:50.947Z,26.67
2022-08-04T19:18:19.024Z,26.62
2022-08-04T19:20:48.975Z,26.58
2022-08-04T19:24:28.950Z,26.56
2022-08-04T19:26:27.785Z,26.48
2022-08-04T19:28:56.823Z,26.41
2022-08-04T19:31:34.391Z,26.41
2022-08-04T19:34:10.153Z,26.38
2022-08-04T19:36:46.137Z,26.32
2022-08-04T19:39:14.321Z,26.29
2022-08-04T19:42:05.194Z,26.28
2022-08-04T19:44:31.932Z,26.27
2022-08-04T19:48:16.200Z,26.31
2022-08-04T19:50:04.379Z,26.30
2022-08-04T19:52:38.234Z,26.23
2022-08-04T19:55:10.107Z,26.18
2022-08-04T19:57:49.342Z,26.14
2022-08-04T20:00:34.172Z,26.09
2022-08-04T20:05:55.823Z,25.96
2022-08-04T20:08:25.080Z,25.88
2022-08-04T20:10:56.260Z,25.83
2022-08-04T20:13:37.152Z,25.72
2022-08-04T20:16:28.469Z,25.60
2022-08-04T20:19:03.752Z,25.63
2022-08-04T20:21:53.602Z,25.51
2022-08-04T20:24:40.119Z,25.41
2022-08-04T20:27:21.579Z,25.37
2022-08-04T20:29:55.460Z,25.21
2022-08-04T20:32:30.252Z,25.21
2022-08-04T20:35:01.556Z,25.16
2022-08-04T20:37:55.287Z,25.10
2022-08-04T20:40:29.839Z,24.98
2022-08-04T20:42:58.297Z,24.89
2022-08-04T20:45:56.493Z,24.90
2022-08-04T20:48:25.720Z,24.79
2022-08-04T20:51:00.211Z,24.77
2022-08-04T20:53:32.772Z,24.74
2022-08-04T20:56:30.957Z,24.71
2022-08-04T20:59:07.667Z,24.58
2022-08-04T21:01:53.655Z,24.56
2022-08-04T21:04:45.282Z,24.52
2022-08-04T21:07:27.450Z,24.49
2022-08-04T21:10:04.182Z,24.36
2022-08-04T21:12:40.203Z,24.26
2022-08-04T21:15:13.977Z,24.07
2022-08-04T21:17:58.959Z,24.15
2022-08-04T21:20:44.046Z,24.18
2022-08-04T21:23:18.053Z,24.20
2022-08-04T21:25:51.076Z,24.20
2022-08-04T21:28:23.493Z,24.21
2022-08-04T21:30:55.796Z,23.73
2022-08-04T21:33:50.071Z,24.00
2022-08-04T21:36:29.185Z,23.86
2022-08-04T21:39:11.138Z,23.95
2022-08-04T21:42:27.904Z,23.84
2022-08-04T21:44:53.532Z,23.87
2022-08-04T21:47:37.351Z,23.82
2022-08-04T21:50:19.895Z,23.85
2022-08-04T21:52:57.142Z,23.91
2022-08-04T21:56:04.823Z,23.87
2022-08-04T21:58:34.288Z,23.69
2022-08-04T22:01:50.515Z,23.78
2022-08-04T22:04:15.237Z,23.80
2022-08-04T22:07:02.906Z,23.79
2022-08-04T22:09:40.909Z,23.53
2022-08-04T22:12:21.085Z,23.48
2022-08-04T22:14:59.686Z,23.56
2022-08-04T22:17:40.150Z,23.41
2022-08-04T22:20:27.982Z,23.53
2022-08-04T22:23:06.048Z,23.37
2022-08-04T22:25:42.565Z,23.37
2022-08-04T22:28:18.677Z,23.27
2022-08-04T22:30:51.965Z,23.34
2022-08-04T22:33:54.724Z,23.25
2022-08-04T22:36:38.688Z,23.15
2022-08-04T22:39:07.994Z,23.05
2022-08-04T22:42:03.159Z,22.96
2022-08-04T22:44:33.162Z,22.83
2022-08-04T22:47:02.062Z,22.72
2022-08-04T22:49:32.738Z,22.70
2022-08-04T22:52:26.178Z,22.66
2022-08-04T22:55:00.781Z,22.67
2022-08-04T22:57:43.663Z,22.73
2022-08-04T23:00:19.072Z,22.93
2022-08-04T23:03:01.498Z,22.94
2022-08-04T23:05:35.727Z,22.81
2022-08-04T23:08:05.324Z,22.74
2022-08-04T23:10:34.271Z,22.64
2022-08-04T23:13:04.380Z,22.59
2022-08-04T23:15:39.489Z,22.53
2022-08-04T23:18:10.694Z,22.47
2022-08-04T23:20:55.277Z,22.47
2022-08-04T23:23:26.001Z,22.37
2022-08-04T23:26:07.367Z,22.29
2022-08-04T23:28:36.633Z,22.15
2022-08-04T23:31:06.200Z,22.02
2022-08-04T23:33:51.761Z,21.89
2022-08-04T23:36:29.339Z,21.89
2022-08-04T23:39:04.083Z,21.78
2022-08-04T23:41:50.989Z,21.75
2022-08-04T23:44:29.411Z,21.73
2022-08-04T23:47:02.146Z,21.62
2022-08-04T23:49:44.514Z,21.52
2022-08-04T23:52:23.581Z,21.49
2022-08-04T23:55:00.392Z,21.50
2022-08-04T23:57:31.557Z,21.43
